Time;durP1;ratioP1;P1;durP2;ratioP2;P2;SDS_P1;SDS_P2;PMS_P1;PMS_P2;Temp;Humidity;BMP_temperature;BMP_pressure;BME280_temperature;BME280_humidity;BME280_pressure;Samples;Min_cycle;Max_cycle;Signal;HPM_P1;HPM_P2
2021/03/14 00:02:13;;;;;;;0.00;0.00;;;4.60;99.90;;;;;;6152215;23;20687;-64
2021/03/14 00:04:39;;;;;;;0.00;0.00;;;4.60;99.90;;;;;;6152063;23;20382;-64
2021/03/14 00:07:06;;;;;;;0.00;0.00;;;4.60;99.90;;;;;;6152330;23;20397;-64
2021/03/14 00:09:33;;;;;;;0.00;0.00;;;4.60;99.90;;;;;;6152534;23;20379;-65
2021/03/14 00:11:59;;;;;;;0.00;0.00;;;4.60;99.90;;;;;;6152123;23;20880;-65
2021/03/14 00:14:25;;;;;;;0.00;0.00;;;4.60;99.90;;;;;;6151385;23;20378;-64
2021/03/14 00:16:53;;;;;;;0.00;0.00;;;4.60;99.90;;;;;;6152350;23;20370;-65
2021/03/14 00:19:19;;;;;;;0.00;0.00;;;4.50;99.90;;;;;;6152230;23;20375;-64
2021/03/14 00:21:46;;;;;;;0.00;0.00;;;4.50;99.90;;;;;;6152871;23;20428;-65
2021/03/14 00:24:12;;;;;;;0.00;0.00;;;4.50;99.90;;;;;;6151920;23;20375;-65
2021/03/14 00:26:38;;;;;;;0.00;0.00;;;4.60;99.90;;;;;;6151513;23;20390;-64
2021/03/14 00:29:05;;;;;;;0.00;0.00;;;4.60;99.90;;;;;;6152893;23;20379;-65
2021/03/14 00:31:31;;;;;;;0.00;0.00;;;4.50;99.90;;;;;;6152684;23;20371;-66
2021/03/14 00:33:58;;;;;;;0.00;0.00;;;4.50;99.90;;;;;;6152194;23;20747;-65
2021/03/14 00:36:24;;;;;;;0.00;0.00;;;4.50;99.90;;;;;;6153167;23;20378;-65
2021/03/14 00:38:50;;;;;;;0.00;0.00;;;4.40;99.90;;;;;;6152932;23;20700;-65
2021/03/14 00:41:16;;;;;;;0.00;0.00;;;4.30;99.90;;;;;;6152668;23;20375;-65
2021/03/14 00:43:43;;;;;;;0.00;0.00;;;4.30;99.90;;;;;;6152863;23;20375;-65
2021/03/14 00:46:09;;;;;;;0.00;0.00;;;4.20;99.90;;;;;;6152336;23;20391;-65
2021/03/14 00:48:36;;;;;;;0.00;0.00;;;4.20;99.90;;;;;;6152753;23;20383;-66
2021/03/14 00:51:03;;;;;;;0.00;0.00;;;4.10;99.90;;;;;;6152919;23;20437;-65
2021/03/14 00:53:29;;;;;;;0.00;0.00;;;4.20;99.90;;;;;;6153070;23;20379;-65
2021/03/14 00:55:55;;;;;;;0.00;0.00;;;4.10;99.90;;;;;;6152414;23;20706;-66
2021/03/14 00:58:21;;;;;;;0.00;0.00;;;4.00;99.90;;;;;;6152991;23;20406;-65
2021/03/14 01:00:48;;;;;;;0.00;0.00;;;4.10;99.90;;;;;;6152492;23;20379;-66
2021/03/14 01:03:14;;;;;;;0.00;0.00;;;4.00;99.90;;;;;;6152957;23;20379;-65
2021/03/14 01:05:40;;;;;;;0.00;0.00;;;4.00;99.90;;;;;;6152403;23;20402;-66
2021/03/14 01:08:07;;;;;;;0.00;0.00;;;3.90;99.90;;;;;;6153091;23;20375;-65
2021/03/14 01:10:33;;;;;;;0.00;0.00;;;3.90;99.90;;;;;;6152968;23;20743;-66
2021/03/14 01:12:59;;;;;;;0.00;0.00;;;4.00;99.90;;;;;;6152234;23;20383;-66
2021/03/14 01:15:25;;;;;;;0.00;0.00;;;4.00;99.90;;;;;;6152376;23;20378;-66
2021/03/14 01:17:52;;;;;;;0.00;0.00;;;4.00;99.90;;;;;;6152438;23;20394;-65
2021/03/14 01:20:21;;;;;;;0.00;0.00;;;3.90;99.90;;;;;;6152859;23;20379;-66
2021/03/14 01:22:47;;;;;;;0.00;0.00;;;3.90;99.90;;;;;;6152728;23;20711;-65
2021/03/14 01:25:15;;;;;;;0.00;0.00;;;4.00;99.90;;;;;;6152863;23;20428;-65
2021/03/14 01:27:45;;;;;;;0.00;0.00;;;4.00;99.90;;;;;;6154562;23;20402;-66
2021/03/14 01:30:14;;;;;;;0.00;0.00;;;4.00;99.90;;;;;;6154091;23;20872;-65
2021/03/14 01:32:40;;;;;;;0.00;0.00;;;4.00;99.90;;;;;;6154684;23;20394;-64
2021/03/14 01:35:07;;;;;;;0.00;0.00;;;4.10;99.90;;;;;;6153934;23;20382;-66
2021/03/14 01:37:33;;;;;;;0.00;0.00;;;4.10;99.90;;;;;;6154737;23;20379;-65
2021/03/14 01:39:59;;;;;;;0.00;0.00;;;4.10;99.90;;;;;;6154341;23;20379;-65
2021/03/14 01:42:27;;;;;;;0.00;0.00;;;4.10;99.90;;;;;;6154299;23;20378;-66
2021/03/14 01:44:54;;;;;;;0.00;0.00;;;4.10;99.90;;;;;;6154193;23;20379;-65
2021/03/14 01:47:25;;;;;;;0.00;0.00;;;4.20;99.90;;;;;;6154092;23;20387;-66
2021/03/14 01:49:51;;;;;;;0.00;0.00;;;4.20;99.90;;;;;;6154459;23;20375;-65
2021/03/14 01:52:17;;;;;;;0.00;0.00;;;4.20;99.90;;;;;;6154356;23;20379;-66
2021/03/14 01:54:43;;;;;;;0.00;0.00;;;4.20;99.90;;;;;;6154025;23;20378;-65
2021/03/14 01:57:09;;;;;;;0.00;0.00;;;4.20;99.90;;;;;;6154407;23;20695;-65
2021/03/14 01:59:37;;;;;;;0.00;0.00;;;4.20;99.90;;;;;;6154091;23;20375;-65
2021/03/14 02:02:03;;;;;;;0.00;0.00;;;4.30;99.90;;;;;;6154534;23;20375;-66
2021/03/14 02:04:30;;;;;;;0.00;0.00;;;4.30;99.90;;;;;;6153763;23;20375;-65
2021/03/14 02:06:56;;;;;;;0.00;0.00;;;4.20;99.90;;;;;;6154394;23;20391;-65
2021/03/14 02:09:22;;;;;;;0.00;0.00;;;4.30;99.90;;;;;;6153917;23;20474;-66
2021/03/14 02:11:49;;;;;;;0.00;0.00;;;4.20;99.90;;;;;;6154211;23;20444;-65
2021/03/14 02:14:16;;;;;;;0.00;0.00;;;4.20;99.90;;;;;;6154048;23;20374;-66
2021/03/14 02:16:45;;;;;;;0.00;0.00;;;4.30;99.90;;;;;;6153825;23;20676;-65
2021/03/14 02:19:16;;;;;;;0.00;0.00;;;4.30;99.90;;;;;;6153761;23;20933;-66
2021/03/14 02:21:43;;;;;;;0.00;0.00;;;4.30;99.90;;;;;;6153977;23;20411;-65
2021/03/14 02:24:16;;;;;;;0.00;0.00;;;4.30;99.90;;;;;;6153831;23;20477;-66
2021/03/14 02:26:53;;;;;;;0.00;0.00;;;4.30;99.90;;;;;;6154057;23;20398;-66
2021/03/14 02:29:20;;;;;;;0.00;0.00;;;4.30;99.90;;;;;;6154072;23;20374;-65
2021/03/14 02:31:51;;;;;;;0.00;0.00;;;4.30;99.90;;;;;;6154486;23;20928;-65
2021/03/14 02:34:20;;;;;;;0.00;0.00;;;4.40;99.90;;;;;;6154587;23;20702;-66
2021/03/14 02:36:48;;;;;;;0.00;0.00;;;4.40;99.90;;;;;;6153807;23;20375;-65
2021/03/14 02:39:17;;;;;;;0.00;0.00;;;4.40;99.90;;;;;;6153287;23;20382;-65
2021/03/14 02:41:45;;;;;;;0.00;0.00;;;4.40;99.90;;;;;;6153420;23;20382;-65
2021/03/14 02:44:14;;;;;;;0.00;0.00;;;4.30;99.90;;;;;;6153429;23;20756;-66
2021/03/14 02:46:41;;;;;;;0.00;0.00;;;4.40;99.90;;;;;;6153342;23;20395;-65
2021/03/14 02:49:08;;;;;;;0.00;0.00;;;4.30;99.90;;;;;;6153864;23;20383;-66
2021/03/14 02:51:35;;;;;;;0.00;0.00;;;4.40;99.90;;;;;;6153493;23;20406;-66
2021/03/14 02:54:02;;;;;;;0.00;0.00;;;4.30;99.90;;;;;;6153401;23;20449;-66
2021/03/14 02:56:28;;;;;;;0.00;0.00;;;4.40;99.90;;;;;;6153185;23;20375;-65
2021/03/14 02:58:55;;;;;;;0.00;0.00;;;4.30;99.90;;;;;;6153931;23;20722;-66
2021/03/14 03:01:22;;;;;;;0.00;0.00;;;4.40;99.90;;;;;;6153653;23;20758;-66
2021/03/14 03:03:49;;;;;;;0.00;0.00;;;4.40;99.90;;;;;;6153481;23;20382;-66
2021/03/14 03:06:16;;;;;;;0.00;0.00;;;4.40;99.90;;;;;;6153339;23;20394;-65
2021/03/14 03:08:44;;;;;;;0.00;0.00;;;4.30;99.90;;;;;;6153596;23;20388;-66
2021/03/14 03:11:13;;;;;;;0.00;0.00;;;4.40;99.90;;;;;;6152671;23;20402;-66
2021/03/14 03:13:41;;;;;;;0.00;0.00;;;4.40;99.90;;;;;;6150864;23;20853;-66
2021/03/14 03:16:11;;;;;;;0.00;0.00;;;4.30;99.90;;;;;;6152101;23;20710;-66
2021/03/14 03:18:39;;;;;;;0.00;0.00;;;4.30;99.90;;;;;;6154109;23;20375;-65
2021/03/14 03:21:06;;;;;;;0.00;0.00;;;4.30;99.90;;;;;;6155285;23;20379;-66
2021/03/14 03:23:34;;;;;;;0.00;0.00;;;4.40;99.90;;;;;;6154218;23;20434;-65
2021/03/14 03:26:00;;;;;;;0.00;0.00;;;4.40;99.90;;;;;;6153546;23;20822;-65
2021/03/14 03:28:26;;;;;;;0.00;0.00;;;4.30;99.90;;;;;;6153813;23;20401;-65
2021/03/14 03:30:53;;;;;;;0.00;0.00;;;4.40;99.90;;;;;;6153668;23;20374;-65
2021/03/14 03:33:19;;;;;;;0.00;0.00;;;4.40;99.90;;;;;;6153762;23;20393;-66
2021/03/14 03:35:46;;;;;;;0.00;0.00;;;4.30;99.90;;;;;;6153481;23;20390;-66
2021/03/14 03:38:12;;;;;;;0.00;0.00;;;4.30;99.90;;;;;;6153535;23;20383;-65
2021/03/14 03:40:39;;;;;;;0.00;0.00;;;4.30;99.90;;;;;;6153448;23;20393;-65
2021/03/14 03:43:11;;;;;;;0.00;0.00;;;4.40;99.90;;;;;;6153321;23;20402;-66
2021/03/14 03:45:40;;;;;;;0.00;0.00;;;4.40;99.90;;;;;;6153132;23;20435;-66
2021/03/14 03:48:09;;;;;;;0.00;0.00;;;4.40;99.90;;;;;;6153085;23;20374;-66
2021/03/14 03:50:39;;;;;;;0.00;0.00;;;4.40;99.90;;;;;;6153328;23;20379;-65
2021/03/14 03:53:07;;;;;;;0.00;0.00;;;4.40;99.90;;;;;;6153539;23;20430;-65
2021/03/14 03:55:33;;;;;;;0.00;0.00;;;4.30;99.90;;;;;;6152564;23;20382;-65
2021/03/14 03:58:00;;;;;;;0.00;0.00;;;4.40;99.90;;;;;;6153428;23;20438;-65
2021/03/14 04:00:28;;;;;;;0.00;0.00;;;4.40;99.90;;;;;;6152958;23;20382;-66
2021/03/14 04:02:57;;;;;;;0.00;0.00;;;4.50;99.90;;;;;;6153395;23;20385;-66
2021/03/14 04:05:24;;;;;;;0.00;0.00;;;4.40;99.90;;;;;;6152896;23;20375;-65
2021/03/14 04:07:50;;;;;;;0.00;0.00;;;4.30;99.90;;;;;;6152966;23;20874;-65
2021/03/14 04:10:20;;;;;;;0.00;0.00;;;4.30;99.90;;;;;;6153230;23;20386;-65
2021/03/14 04:12:48;;;;;;;0.00;0.00;;;4.30;99.90;;;;;;6152996;23;20379;-67
2021/03/14 04:15:16;;;;;;;0.00;0.00;;;4.40;99.90;;;;;;6152757;23;20862;-68
2021/03/14 04:17:43;;;;;;;0.00;0.00;;;4.30;99.90;;;;;;6153153;23;20379;-66
2021/03/14 04:20:12;;;;;;;0.00;0.00;;;4.30;99.90;;;;;;6153076;23;20383;-65
2021/03/14 04:22:41;;;;;;;0.00;0.00;;;4.30;99.90;;;;;;6152792;23;20392;-66
2021/03/14 04:25:09;;;;;;;0.00;0.00;;;4.30;99.90;;;;;;6152890;23;20379;-65
2021/03/14 04:27:38;;;;;;;0.00;0.00;;;4.30;99.90;;;;;;6153151;23;20387;-65
2021/03/14 04:30:06;;;;;;;0.00;0.00;;;4.30;99.90;;;;;;6152965;23;20379;-65
2021/03/14 04:32:32;;;;;;;0.00;0.00;;;4.30;99.90;;;;;;6153002;23;20379;-65
2021/03/14 04:34:59;;;;;;;0.00;0.00;;;4.20;99.90;;;;;;6152640;23;20378;-64
2021/03/14 04:37:25;;;;;;;0.00;0.00;;;4.30;99.90;;;;;;6153037;23;20378;-65
2021/03/14 04:39:54;;;;;;;0.00;0.00;;;4.20;99.90;;;;;;6152519;23;20865;-65
2021/03/14 04:42:21;;;;;;;0.00;0.00;;;4.30;99.90;;;;;;6153124;23;20486;-65
2021/03/14 04:44:50;;;;;;;0.00;0.00;;;4.20;99.90;;;;;;6152374;23;20378;-66
2021/03/14 04:47:16;;;;;;;0.00;0.00;;;4.20;99.90;;;;;;6152942;23;20719;-65
2021/03/14 04:49:43;;;;;;;0.00;0.00;;;4.20;99.90;;;;;;6152477;23;20878;-65
2021/03/14 04:52:10;;;;;;;0.00;0.00;;;4.20;99.90;;;;;;6152878;23;20379;-65
2021/03/14 04:54:37;;;;;;;0.00;0.00;;;4.10;99.90;;;;;;6152629;23;20411;-64
2021/03/14 04:57:04;;;;;;;0.00;0.00;;;4.10;99.90;;;;;;6152965;23;20435;-65
2021/03/14 04:59:31;;;;;;;0.00;0.00;;;4.10;99.90;;;;;;6153250;23;20934;-64
2021/03/14 05:02:00;;;;;;;0.00;0.00;;;4.10;99.90;;;;;;6154891;23;20382;-65
2021/03/14 05:04:28;;;;;;;0.00;0.00;;;4.00;99.90;;;;;;6153937;23;20846;-65
2021/03/14 05:06:55;;;;;;;0.00;0.00;;;4.00;99.90;;;;;;6154501;23;20386;-65
2021/03/14 05:09:21;;;;;;;0.00;0.00;;;4.00;99.90;;;;;;6154495;23;20389;-65
2021/03/14 05:11:49;;;;;;;0.00;0.00;;;4.00;99.90;;;;;;6155029;23;20430;-64
2021/03/14 05:14:15;;;;;;;0.00;0.00;;;4.00;99.90;;;;;;6153978;23;20908;-65
2021/03/14 05:16:43;;;;;;;0.00;0.00;;;4.00;99.90;;;;;;6154721;23;20684;-66
2021/03/14 05:19:10;;;;;;;0.00;0.00;;;4.00;99.90;;;;;;6154346;23;20980;-65
2021/03/14 05:21:37;;;;;;;0.00;0.00;;;4.00;99.90;;;;;;6154692;23;20431;-65
2021/03/14 05:24:07;;;;;;;0.00;0.00;;;4.00;99.90;;;;;;6155055;23;20426;-65
2021/03/14 05:26:34;;;;;;;0.00;0.00;;;4.00;99.90;;;;;;6154494;23;20394;-64
2021/03/14 05:29:01;;;;;;;0.00;0.00;;;4.00;99.90;;;;;;6154614;23;20817;-65
2021/03/14 05:31:33;;;;;;;0.00;0.00;;;4.00;99.90;;;;;;6154392;23;20383;-65
2021/03/14 05:34:01;;;;;;;0.00;0.00;;;3.90;99.90;;;;;;6154620;23;20405;-64
2021/03/14 05:36:28;;;;;;;0.00;0.00;;;3.90;99.90;;;;;;6154410;23;20379;-65
2021/03/14 05:38:56;;;;;;;0.00;0.00;;;3.80;99.90;;;;;;6154260;23;20375;-65
2021/03/14 05:41:23;;;;;;;0.00;0.00;;;3.80;99.90;;;;;;6154596;23;20379;-64
2021/03/14 05:43:50;;;;;;;0.00;0.00;;;3.90;99.90;;;;;;6153878;23;20846;-65
2021/03/14 05:46:17;;;;;;;0.00;0.00;;;3.90;99.90;;;;;;6154127;23;20443;-66
2021/03/14 05:48:43;;;;;;;0.00;0.00;;;3.90;99.90;;;;;;6154217;23;20381;-64
2021/03/14 05:51:10;;;;;;;0.00;0.00;;;3.90;99.90;;;;;;6154316;23;20443;-65
2021/03/14 05:53:40;;;;;;;0.00;0.00;;;3.90;99.90;;;;;;6154585;23;20379;-66
2021/03/14 05:56:07;;;;;;;0.00;0.00;;;4.00;99.90;;;;;;6153806;23;20379;-65
2021/03/14 05:58:36;;;;;;;0.00;0.00;;;4.00;99.90;;;;;;6154396;23;20385;-66
2021/03/14 06:01:06;;;;;;;0.00;0.00;;;4.00;99.90;;;;;;6153645;23;20410;-65
2021/03/14 06:03:33;;;;;;;0.00;0.00;;;4.00;99.90;;;;;;6154401;23;20383;-66
2021/03/14 06:06:00;;;;;;;0.00;0.00;;;4.00;99.90;;;;;;6153402;23;20418;-66
2021/03/14 06:08:26;;;;;;;0.00;0.00;;;4.10;99.90;;;;;;6154021;23;20391;-65
2021/03/14 06:10:53;;;;;;;0.00;0.00;;;4.00;99.90;;;;;;6153985;23;20379;-65
2021/03/14 06:13:20;;;;;;;0.00;0.00;;;4.00;99.90;;;;;;6153575;23;20383;-66
2021/03/14 06:15:46;;;;;;;0.00;0.00;;;4.00;99.90;;;;;;6154159;23;20390;-65
2021/03/14 06:18:12;;;;;;;0.00;0.00;;;4.00;99.90;;;;;;6154103;23;20429;-65
2021/03/14 06:20:41;;;;;;;0.00;0.00;;;4.00;99.90;;;;;;6154408;23;20445;-65
2021/03/14 06:23:09;;;;;;;0.00;0.00;;;4.00;99.90;;;;;;6154333;23;20383;-66
2021/03/14 06:25:36;;;;;;;0.00;0.00;;;4.00;99.90;;;;;;6153365;23;20881;-66
2021/03/14 06:28:04;;;;;;;0.00;0.00;;;4.00;99.90;;;;;;6154590;23;20766;-64
2021/03/14 06:30:32;;;;;;;0.00;0.00;;;4.10;99.90;;;;;;6154053;23;20383;-64
2021/03/14 06:33:04;;;;;;;0.00;0.00;;;4.00;99.90;;;;;;6154778;23;20378;-66
2021/03/14 06:35:41;;;;;;;0.00;0.00;;;4.00;99.90;;;;;;6153575;23;20375;-66
2021/03/14 06:38:21;;;;;;;0.00;0.00;;;4.00;99.90;;;;;;6153986;23;20371;-65
2021/03/14 06:40:49;;;;;;;0.00;0.00;;;4.00;99.90;;;;;;6153703;23;20374;-66
2021/03/14 06:43:17;;;;;;;0.00;0.00;;;4.00;99.90;;;;;;6154084;23;20382;-65
2021/03/14 06:45:44;;;;;;;0.00;0.00;;;4.10;99.90;;;;;;6153905;23;20406;-65
2021/03/14 06:48:10;;;;;;;0.00;0.00;;;4.10;99.90;;;;;;6153445;23;20825;-65
2021/03/14 06:50:40;;;;;;;0.00;0.00;;;4.10;99.90;;;;;;6153855;23;20433;-65
2021/03/14 06:53:11;;;;;;;0.00;0.00;;;4.10;99.90;;;;;;6153910;23;20382;-66
2021/03/14 06:55:38;;;;;;;0.00;0.00;;;4.20;99.90;;;;;;6153707;23;20430;-65
2021/03/14 06:58:22;;;;;;;0.00;0.00;;;4.20;99.90;;;;;;6153811;23;20437;-65
2021/03/14 07:01:10;;;;;;;0.00;0.00;;;4.20;99.90;;;;;;6153589;23;20447;-66
2021/03/14 07:03:37;;;;;;;0.00;0.00;;;4.20;99.90;;;;;;6153724;23;20379;-65
2021/03/14 07:06:17;;;;;;;0.00;0.00;;;4.20;99.90;;;;;;6153407;23;20386;-66
2021/03/14 07:08:44;;;;;;;0.00;0.00;;;4.20;99.90;;;;;;6154079;23;20383;-65
2021/03/14 07:11:11;;;;;;;0.00;0.00;;;4.30;99.90;;;;;;6153443;23;21018;-65
2021/03/14 07:13:39;;;;;;;0.00;0.00;;;4.40;99.90;;;;;;6153583;23;20383;-66
2021/03/14 07:16:06;;;;;;;0.00;0.00;;;4.40;99.90;;;;;;6153592;23;20523;-64
2021/03/14 07:18:33;;;;;;;0.00;0.00;;;4.30;99.90;;;;;;6153715;23;20386;-65
2021/03/14 07:21:00;;;;;;;0.00;0.00;;;4.20;99.90;;;;;;6153154;23;20406;-65
2021/03/14 07:23:33;;;;;;;0.00;0.00;;;4.30;99.90;;;;;;6152822;23;20438;-65
2021/03/14 07:26:00;;;;;;;0.00;0.00;;;4.30;99.90;;;;;;6152816;23;20375;-65
2021/03/14 07:28:27;;;;;;;0.00;0.00;;;4.20;99.90;;;;;;6152146;23;20383;-64
2021/03/14 07:30:54;;;;;;;0.00;0.00;;;4.20;99.90;;;;;;6152144;23;20879;-65
2021/03/14 07:33:21;;;;;;;0.00;0.00;;;4.30;99.90;;;;;;6153368;23;20395;-65
2021/03/14 07:35:48;;;;;;;0.00;0.00;;;4.30;99.90;;;;;;6152978;23;20379;-65
2021/03/14 07:38:15;;;;;;;0.00;0.00;;;4.40;99.90;;;;;;6153842;23;20379;-65
2021/03/14 07:40:41;;;;;;;0.00;0.00;;;4.40;99.90;;;;;;6153343;23;20382;-65
2021/03/14 07:43:08;;;;;;;0.00;0.00;;;4.40;99.90;;;;;;6153876;23;20375;-66
2021/03/14 07:45:35;;;;;;;0.00;0.00;;;4.40;99.90;;;;;;6153177;23;20382;-65
2021/03/14 07:48:03;;;;;;;0.00;0.00;;;4.50;99.90;;;;;;6153448;23;20391;-65
2021/03/14 07:50:32;;;;;;;0.00;0.00;;;4.30;99.90;;;;;;6153418;23;20437;-65
2021/03/14 07:53:17;;;;;;;0.00;0.00;;;4.30;99.90;;;;;;6153675;23;20733;-65
2021/03/14 07:55:50;;;;;;;0.00;0.00;;;4.30;99.90;;;;;;6153111;23;20711;-65
2021/03/14 07:58:25;;;;;;;0.00;0.00;;;4.30;99.90;;;;;;6153533;23;20379;-65
2021/03/14 08:00:51;;;;;;;0.00;0.00;;;5.80;99.90;;;;;;6153149;23;20876;-65
2021/03/14 08:03:36;;;;;;;0.00;0.00;;;4.40;99.90;;;;;;6153015;23;20394;-65
2021/03/14 08:06:02;;;;;;;0.00;0.00;;;4.20;99.90;;;;;;6152738;23;20861;-66
2021/03/14 08:08:46;;;;;;;0.00;0.00;;;4.00;99.90;;;;;;6153268;23;20383;-64
2021/03/14 08:11:28;;;;;;;0.00;0.00;;;3.70;99.90;;;;;;6153241;23;20375;-64
2021/03/14 08:13:54;;;;;;;0.00;0.00;;;3.60;99.90;;;;;;6152745;23;20470;-65
2021/03/14 08:16:21;;;;;;;0.00;0.00;;;3.80;99.90;;;;;;6153024;23;20375;-64
2021/03/14 08:18:50;;;;;;;0.00;0.00;;;3.90;99.90;;;;;;6153180;23;20850;-64
2021/03/14 08:21:41;;;;;;;0.00;0.00;;;3.60;99.90;;;;;;6153225;23;20382;-64
2021/03/14 08:24:07;;;;;;;0.00;0.00;;;3.60;99.90;;;;;;6147938;23;20379;-64
2021/03/14 08:26:35;;;;;;;0.00;0.00;;;3.40;99.90;;;;;;6152361;23;20390;-64
2021/03/14 08:29:03;;;;;;;0.00;0.00;;;3.40;99.90;;;;;;6152933;23;20694;-65
2021/03/14 08:31:44;;;;;;;0.00;0.00;;;3.40;99.90;;;;;;6149238;23;20429;-65
2021/03/14 08:34:12;;;;;;;0.00;0.00;;;3.00;99.90;;;;;;6152654;23;20548;-65
2021/03/14 08:36:40;;;;;;;0.00;0.00;;;2.90;99.90;;;;;;6154402;23;20374;-65
2021/03/14 08:39:08;;;;;;;0.00;0.00;;;2.90;99.90;;;;;;6154904;23;20378;-65
2021/03/14 08:41:47;;;;;;;0.00;0.00;;;2.90;99.90;;;;;;6154478;23;20382;-66
2021/03/14 08:44:29;;;;;;;0.00;0.00;;;3.00;99.90;;;;;;6154741;23;20375;-65
2021/03/14 08:46:59;;;;;;;0.00;0.00;;;3.00;99.90;;;;;;6154692;23;20393;-67
2021/03/14 08:49:28;;;;;;;0.00;0.00;;;3.00;99.90;;;;;;6154597;23;20379;-65
2021/03/14 08:51:55;;;;;;;0.00;0.00;;;3.10;99.90;;;;;;6154146;23;20382;-65
2021/03/14 08:54:26;;;;;;;0.00;0.00;;;3.10;99.90;;;;;;6154661;23;20691;-66
2021/03/14 08:56:55;;;;;;;0.00;0.00;;;3.10;99.90;;;;;;6155024;23;20702;-66
2021/03/14 08:59:21;;;;;;;0.00;0.00;;;3.10;99.90;;;;;;6154620;23;21009;-65
2021/03/14 09:01:53;;;;;;;0.00;0.00;;;3.10;99.90;;;;;;6154629;23;20388;-65
2021/03/14 09:04:21;;;;;;;0.00;0.00;;;3.10;99.90;;;;;;6154864;23;20383;-65
2021/03/14 09:06:48;;;;;;;0.00;0.00;;;3.20;99.90;;;;;;6154218;23;20437;-66
2021/03/14 09:09:17;;;;;;;0.00;0.00;;;3.30;99.90;;;;;;6154736;23;20396;-65
2021/03/14 09:11:46;;;;;;;0.00;0.00;;;3.40;99.90;;;;;;6154443;23;20441;-66
2021/03/14 09:14:24;;;;;;;0.00;0.00;;;3.50;99.90;;;;;;6153581;23;20371;-66
2021/03/14 09:16:51;;;;;;;0.00;0.00;;;3.60;99.90;;;;;;6153769;23;20379;-66
2021/03/14 09:19:35;;;;;;;0.00;0.00;;;3.70;99.90;;;;;;6154314;23;20390;-66
2021/03/14 09:22:04;;;;;;;0.00;0.00;;;3.70;99.90;;;;;;6154246;23;20746;-65
2021/03/14 09:24:33;;;;;;;0.00;0.00;;;3.70;99.90;;;;;;6153842;23;20375;-65
2021/03/14 09:27:02;;;;;;;0.00;0.00;;;3.90;99.90;;;;;;6154107;23;20398;-65
2021/03/14 09:29:49;;;;;;;0.00;0.00;;;3.90;99.90;;;;;;6154352;23;20379;-65
2021/03/14 09:32:25;;;;;;;0.00;0.00;;;3.90;99.90;;;;;;6154193;23;20379;-66
2021/03/14 09:35:16;;;;;;;0.00;0.00;;;4.00;99.90;;;;;;6153277;23;20382;-66
2021/03/14 09:37:44;;;;;;;0.00;0.00;;;4.00;99.90;;;;;;6154458;23;20386;-67
2021/03/14 09:40:13;;;;;;;0.00;0.00;;;4.00;99.90;;;;;;6154405;23;20926;-66
2021/03/14 09:42:40;;;;;;;0.00;0.00;;;4.00;99.90;;;;;;6153914;23;20406;-67
2021/03/14 09:45:10;;;;;;;0.00;0.00;;;4.00;99.90;;;;;;6154088;23;20743;-66
2021/03/14 09:47:55;;;;;;;0.00;0.00;;;4.10;99.90;;;;;;6154207;23;20391;-66
2021/03/14 09:50:22;;;;;;;0.00;0.00;;;4.20;99.90;;;;;;6153948;23;20877;-67
2021/03/14 09:52:49;;;;;;;0.00;0.00;;;4.30;99.90;;;;;;6153876;23;20858;-66
2021/03/14 09:55:22;;;;;;;0.00;0.00;;;4.30;99.90;;;;;;6154186;23;20375;-66
2021/03/14 09:57:48;;;;;;;0.00;0.00;;;4.30;99.90;;;;;;6154532;23;20409;-66
2021/03/14 10:00:21;;;;;;;0.00;0.00;;;4.30;99.90;;;;;;6153666;23;20409;-65
2021/03/14 10:02:48;;;;;;;0.00;0.00;;;4.30;99.90;;;;;;6153817;23;20386;-65
2021/03/14 10:05:14;;;;;;;0.00;0.00;;;4.40;99.90;;;;;;6154211;23;20375;-65
2021/03/14 10:07:40;;;;;;;0.00;0.00;;;4.40;99.90;;;;;;6153963;23;20398;-66
2021/03/14 10:10:11;;;;;;;0.00;0.00;;;4.40;99.90;;;;;;6154287;23;20374;-68
2021/03/14 10:12:38;;;;;;;0.00;0.00;;;4.40;99.90;;;;;;6152845;23;20417;-67
2021/03/14 10:15:06;;;;;;;0.00;0.00;;;4.40;99.90;;;;;;6153881;23;20382;-67
2021/03/14 10:17:33;;;;;;;0.00;0.00;;;4.40;99.90;;;;;;6154240;23;20378;-67
2021/03/14 10:20:00;;;;;;;0.00;0.00;;;4.40;99.90;;;;;;6154177;23;20379;-68
2021/03/14 10:22:36;;;;;;;0.00;0.00;;;4.40;99.90;;;;;;6153709;23;20542;-67
2021/03/14 10:25:03;;;;;;;0.00;0.00;;;4.20;99.90;;;;;;6153274;23;20382;-67
2021/03/14 10:27:31;;;;;;;0.00;0.00;;;4.30;99.90;;;;;;6153952;23;20394;-69
2021/03/14 10:30:00;;;;;;;0.00;0.00;;;4.30;99.90;;;;;;6153617;23;20383;-69
2021/03/14 10:32:27;;;;;;;0.00;0.00;;;4.30;99.90;;;;;;6153681;23;20383;-68
2021/03/14 10:34:56;;;;;;;0.00;0.00;;;4.30;99.90;;;;;;6153254;23;20374;-68
2021/03/14 10:37:27;;;;;;;0.00;0.00;;;4.40;99.90;;;;;;6154435;23;20379;-68
2021/03/14 10:39:58;;;;;;;0.00;0.00;;;4.50;99.90;;;;;;6153437;23;20386;-69
2021/03/14 10:42:34;;;;;;;0.00;0.00;;;4.40;99.90;;;;;;6153684;23;20850;-67
2021/03/14 10:45:06;;;;;;;0.00;0.00;;;4.50;99.90;;;;;;6152939;23;20386;-68
2021/03/14 10:47:32;;;;;;;0.00;0.00;;;4.80;99.90;;;;;;6153178;23;20700;-68
2021/03/14 10:50:18;;;;;;;0.00;0.00;;;4.90;99.90;;;;;;6153742;23;20410;-67
2021/03/14 10:52:44;;;;;;;0.00;0.00;;;5.20;1.00;;;;;;6153337;23;20387;-68
2021/03/14 10:55:23;;;;;;;0.00;0.00;;;5.30;1.00;;;;;;6152917;23;20375;-66
2021/03/14 10:57:51;;;;;;;0.00;0.00;;;5.40;1.00;;;;;;6152938;23;20398;-67
2021/03/14 11:00:20;;;;;;;0.00;0.00;;;5.40;99.90;;;;;;6153770;23;20390;-65
2021/03/14 11:02:53;;;;;;;0.00;0.00;;;5.30;99.90;;;;;;6153482;23;20452;-66
2021/03/14 11:05:20;;;;;;;0.00;0.00;;;5.60;99.90;;;;;;6152863;23;20434;-66
2021/03/14 11:07:58;;;;;;;0.00;0.00;;;5.80;99.90;;;;;;6153669;23;20418;-68
2021/03/14 11:10:24;;;;;;;0.00;0.00;;;5.50;99.90;;;;;;6153099;23;20402;-68
2021/03/14 11:12:52;;;;;;;0.00;0.00;;;5.50;99.90;;;;;;6153045;23;20378;-68
2021/03/14 11:15:24;;;;;;;0.00;0.00;;;5.60;99.90;;;;;;6152945;23;20917;-68
2021/03/14 11:17:50;;;;;;;0.00;0.00;;;5.70;99.90;;;;;;6153725;23;20749;-65
2021/03/14 11:20:17;;;;;;;0.00;0.00;;;5.90;99.90;;;;;;6153603;23;20453;-66
2021/03/14 11:22:44;;;;;;;0.00;0.00;;;5.90;99.90;;;;;;6152674;23;20387;-66
2021/03/14 11:25:12;;;;;;;0.00;0.00;;;5.80;99.90;;;;;;6153049;23;20538;-67
2021/03/14 11:27:39;;;;;;;0.00;0.00;;;5.70;99.90;;;;;;6152882;23;20395;-67
2021/03/14 11:30:08;;;;;;;0.00;0.00;;;5.90;99.90;;;;;;6153290;23;20375;-68
2021/03/14 11:32:34;;;;;;;0.00;0.00;;;6.10;99.90;;;;;;6152981;23;20441;-67
2021/03/14 11:35:00;;;;;;;0.00;0.00;;;6.20;99.90;;;;;;6153353;23;20391;-67
2021/03/14 11:37:26;;;;;;;0.00;0.00;;;6.10;99.90;;;;;;6153717;23;20707;-66
2021/03/14 11:39:53;;;;;;;0.00;0.00;;;6.00;99.90;;;;;;6153470;23;20375;-67
2021/03/14 11:42:20;;;;;;;0.00;0.00;;;6.30;99.90;;;;;;6153815;23;20371;-69
2021/03/14 11:44:46;;;;;;;0.00;0.00;;;6.50;99.90;;;;;;6154131;23;20414;-67
2021/03/14 11:47:13;;;;;;;0.00;0.00;;;6.40;99.90;;;;;;6153784;23;20766;-68
2021/03/14 11:49:39;;;;;;;0.00;0.00;;;6.20;99.90;;;;;;6153679;23;20379;-68
2021/03/14 11:52:06;;;;;;;0.00;0.00;;;6.30;99.90;;;;;;6153519;23;20395;-66
2021/03/14 11:54:32;;;;;;;0.00;0.00;;;6.60;99.90;;;;;;6154325;23;20379;-65
2021/03/14 11:56:58;;;;;;;0.00;0.00;;;6.70;99.90;;;;;;6153369;23;20371;-65
2021/03/14 11:59:25;;;;;;;0.00;0.00;;;6.70;99.90;;;;;;6153095;23;20411;-65
2021/03/14 12:01:51;;;;;;;0.00;0.00;;;6.80;99.90;;;;;;6152798;23;20379;-65
2021/03/14 12:04:19;;;;;;;0.00;0.00;;;7.00;99.90;;;;;;6152950;23;20390;-65
2021/03/14 12:06:47;;;;;;;0.00;0.00;;;6.80;99.90;;;;;;6152841;23;20768;-66
2021/03/14 12:09:13;;;;;;;0.00;0.00;;;6.90;99.90;;;;;;6152955;23;20379;-65
2021/03/14 12:11:39;;;;;;;0.00;0.00;;;7.20;99.90;;;;;;6152329;23;20383;-66
2021/03/14 12:14:05;;;;;;;0.00;0.00;;;7.30;99.90;;;;;;6152546;23;20374;-67
2021/03/14 12:16:32;;;;;;;0.00;0.00;;;7.20;99.90;;;;;;6152756;23;20375;-65
2021/03/14 12:18:58;;;;;;;0.00;0.00;;;7.10;99.90;;;;;;6153109;23;20383;-65
2021/03/14 12:21:25;;;;;;;0.00;0.00;;;7.30;99.90;;;;;;6152594;23;20386;-65
2021/03/14 12:23:51;;;;;;;0.00;0.00;;;7.30;99.90;;;;;;6152977;23;20406;-68
2021/03/14 12:26:20;;;;;;;0.00;0.00;;;7.40;99.90;;;;;;6152254;23;20389;-67
2021/03/14 12:28:46;;;;;;;0.00;0.00;;;7.60;99.90;;;;;;6153053;23;20409;-67
2021/03/14 12:31:12;;;;;;;0.00;0.00;;;7.80;99.90;;;;;;6152560;23;20430;-68
2021/03/14 12:33:39;;;;;;;0.00;0.00;;;7.70;99.90;;;;;;6152616;23;20749;-68
2021/03/14 12:36:06;;;;;;;0.00;0.00;;;7.50;99.90;;;;;;6152647;23;20415;-67
2021/03/14 12:38:33;;;;;;;0.00;0.00;;;7.50;99.90;;;;;;6152523;23;20776;-67
2021/03/14 12:40:59;;;;;;;0.00;0.00;;;7.50;99.90;;;;;;6152658;23;20435;-67
2021/03/14 12:43:26;;;;;;;0.00;0.00;;;7.10;99.90;;;;;;6152429;23;20383;-68
2021/03/14 12:45:53;;;;;;;0.00;0.00;;;7.20;99.90;;;;;;6152458;23;20383;-68
2021/03/14 12:48:20;;;;;;;0.00;0.00;;;7.30;99.90;;;;;;6152428;23;20946;-68
2021/03/14 12:50:46;;;;;;;0.00;0.00;;;7.50;99.90;;;;;;6152285;23;20871;-68
2021/03/14 12:53:13;;;;;;;0.00;0.00;;;7.80;99.90;;;;;;6152707;23;20375;-69
2021/03/14 12:55:40;;;;;;;0.00;0.00;;;8.00;99.90;;;;;;6152426;23;20383;-69
2021/03/14 12:58:06;;;;;;;0.00;0.00;;;8.40;99.90;;;;;;6152579;23;20371;-68
2021/03/14 13:00:33;;;;;;;0.00;0.00;;;8.70;99.90;;;;;;6152820;23;20379;-68
2021/03/14 13:02:59;;;;;;;0.00;0.00;;;8.70;99.90;;;;;;6152522;23;20378;-69
2021/03/14 13:05:29;;;;;;;0.00;0.00;;;9.00;99.90;;;;;;6152698;23;20382;-69